Time;durP1;ratioP1;P1;durP2;ratioP2;P2;SDS_P1;SDS_P2;PMS_P1;PMS_P2;Temp;Humidity;BMP_temperature;BMP_pressure;BME280_temperature;BME280_humidity;BME280_pressure;Samples;Min_cycle;Max_cycle;Signal;HPM_P1;HPM_P2
2021/12/03 00:00:45;;;;;;;10.23;5.55;;;0.60;99.90;;;;;;5148371;27;20039;-82
2021/12/03 00:03:12;;;;;;;9.65;5.65;;;0.50;99.90;;;;;;5137897;27;20496;-82
2021/12/03 00:05:38;;;;;;;8.60;6.03;;;0.50;99.90;;;;;;5139167;27;20042;-82
2021/12/03 00:08:05;;;;;;;9.35;6.15;;;0.50;99.90;;;;;;5114848;27;20042;-83
2021/12/03 00:10:34;;;;;;;7.78;5.95;;;0.50;99.90;;;;;;5127263;27;20054;-84
2021/12/03 00:13:00;;;;;;;8.98;6.43;;;0.40;99.90;;;;;;5104758;27;20043;-83
2021/12/03 00:15:28;;;;;;;10.15;6.85;;;0.40;99.90;;;;;;5116023;27;20038;-83
2021/12/03 00:17:54;;;;;;;9.95;6.57;;;0.40;99.90;;;;;;5106275;27;20515;-83
2021/12/03 00:20:23;;;;;;;10.52;6.40;;;0.40;99.90;;;;;;5107435;27;20379;-84
2021/12/03 00:22:52;;;;;;;10.52;6.85;;;0.40;99.90;;;;;;5118307;27;20035;-82
2021/12/03 00:25:19;;;;;;;10.70;6.97;;;0.30;99.90;;;;;;5134314;27;20039;-84
2021/12/03 00:27:46;;;;;;;11.25;6.32;;;0.30;99.90;;;;;;5114369;27;20046;-83
2021/12/03 00:30:15;;;;;;;11.50;6.00;;;0.30;99.90;;;;;;5113835;27;20035;-83
2021/12/03 00:32:42;;;;;;;12.60;6.50;;;0.30;99.90;;;;;;5097383;27;20055;-83
2021/12/03 00:35:10;;;;;;;10.38;6.07;;;0.30;99.90;;;;;;5143064;27;20054;-82
2021/12/03 00:37:39;;;;;;;8.57;5.95;;;0.20;99.90;;;;;;5154456;27;20436;-83
2021/12/03 00:40:10;;;;;;;9.43;6.38;;;0.20;99.90;;;;;;5144911;27;20113;-84
2021/12/03 00:42:37;;;;;;;9.90;6.65;;;0.20;99.90;;;;;;5126258;27;20060;-84
2021/12/03 00:45:05;;;;;;;10.13;7.38;;;0.20;99.90;;;;;;5148420;27;20111;-84
2021/12/03 00:47:31;;;;;;;8.57;6.10;;;0.20;99.90;;;;;;5134815;27;20039;-83
2021/12/03 00:49:57;;;;;;;9.52;6.57;;;0.10;99.90;;;;;;5133424;27;20289;-83
2021/12/03 00:52:23;;;;;;;10.50;6.65;;;0.10;99.90;;;;;;5082111;27;20035;-83
2021/12/03 00:54:50;;;;;;;11.35;6.38;;;0.10;99.90;;;;;;5122555;27;20057;-83
2021/12/03 00:57:16;;;;;;;12.90;6.47;;;0.00;99.90;;;;;;5082051;27;20066;-85
2021/12/03 00:59:43;;;;;;;10.32;6.65;;;0.00;99.90;;;;;;5135544;27;20031;-83
2021/12/03 01:02:09;;;;;;;8.73;6.07;;;0.00;99.90;;;;;;5147077;27;20102;-83
2021/12/03 01:04:35;;;;;;;10.85;6.93;;;0.00;99.90;;;;;;5115050;27;20094;-83
2021/12/03 01:07:01;;;;;;;11.30;7.25;;;0.00;99.90;;;;;;5136847;27;20091;-83
2021/12/03 01:09:27;;;;;;;11.45;7.35;;;0.00;99.90;;;;;;5123113;27;20111;-83
2021/12/03 01:11:54;;;;;;;8.98;6.65;;;-0.10;99.90;;;;;;5120929;27;20043;-83
2021/12/03 01:14:20;;;;;;;10.10;6.95;;;-0.10;99.90;;;;;;5081557;27;20038;-83
2021/12/03 01:16:47;;;;;;;12.15;7.65;;;-0.10;99.90;;;;;;5103675;27;20394;-83
2021/12/03 01:19:13;;;;;;;11.18;7.93;;;-0.10;99.90;;;;;;5123056;27;20079;-84
2021/12/03 01:21:39;;;;;;;11.10;6.57;;;-0.10;99.90;;;;;;5098136;27;20037;-83
2021/12/03 01:24:06;;;;;;;10.52;7.05;;;-0.10;99.90;;;;;;5115960;27;20117;-84
2021/12/03 01:26:34;;;;;;;10.93;6.80;;;-0.10;99.90;;;;;;5134054;27;20083;-83
2021/12/03 01:29:01;;;;;;;9.97;7.10;;;-0.20;99.90;;;;;;5118518;27;20031;-83
2021/12/03 01:31:27;;;;;;;9.43;6.75;;;-0.20;99.90;;;;;;5114269;27;20035;-83
2021/12/03 01:33:54;;;;;;;12.02;7.82;;;-0.20;99.90;;;;;;5129619;27;20042;-83
2021/12/03 01:36:21;;;;;;;13.52;7.90;;;-0.20;99.90;;;;;;5143045;27;20027;-84
2021/12/03 01:38:47;;;;;;;10.90;7.90;;;-0.20;99.90;;;;;;5150607;27;20042;-84
2021/12/03 01:41:13;;;;;;;10.52;7.30;;;-0.20;99.90;;;;;;5101112;27;20095;-84
2021/12/03 01:43:41;;;;;;;12.38;8.02;;;-0.30;99.90;;;;;;5129179;27;20380;-83
2021/12/03 01:46:10;;;;;;;9.98;6.85;;;-0.30;99.90;;;;;;5116532;27;20403;-82
2021/12/03 01:48:38;;;;;;;10.20;7.25;;;-0.30;99.90;;;;;;5118683;27;20537;-83
2021/12/03 01:51:05;;;;;;;11.88;6.40;;;-0.30;99.90;;;;;;5123795;27;20102;-82
2021/12/03 01:53:34;;;;;;;9.27;6.20;;;-0.30;99.90;;;;;;5113614;27;20183;-83
2021/12/03 01:56:05;;;;;;;9.27;6.55;;;-0.40;99.90;;;;;;5098098;27;20054;-82
2021/12/03 01:58:32;;;;;;;10.15;6.60;;;-0.40;99.90;;;;;;5119819;27;20035;-82
2021/12/03 02:01:02;;;;;;;11.48;6.75;;;-0.40;99.90;;;;;;5102960;27;20581;-81
2021/12/03 02:03:31;;;;;;;10.65;6.50;;;-0.40;99.90;;;;;;5117756;27;20828;-81
2021/12/03 02:05:58;;;;;;;9.77;6.80;;;-0.40;99.90;;;;;;5142950;27;20086;-83
2021/12/03 02:08:25;;;;;;;9.95;6.40;;;-0.50;99.90;;;;;;5117108;27;20456;-83
2021/12/03 02:10:52;;;;;;;10.82;6.75;;;-0.50;99.90;;;;;;5128853;27;20050;-83
2021/12/03 02:13:19;;;;;;;11.80;7.38;;;-0.50;99.90;;;;;;5113743;27;20043;-83
2021/12/03 02:15:45;;;;;;;7.97;6.22;;;-0.50;99.90;;;;;;5130095;27;20113;-83
2021/12/03 02:18:13;;;;;;;8.82;5.80;;;-0.50;99.90;;;;;;5102602;27;20350;-83
2021/12/03 02:20:47;;;;;;;12.07;7.07;;;-0.50;99.90;;;;;;5117331;27;20035;-83
2021/12/03 02:23:15;;;;;;;10.88;6.70;;;-0.50;99.90;;;;;;5119399;27;20039;-83
2021/12/03 02:25:42;;;;;;;9.80;6.38;;;-0.50;99.90;;;;;;5149830;27;20496;-84
2021/12/03 02:28:09;;;;;;;13.05;6.82;;;-0.50;99.90;;;;;;5104441;27;20035;-83
2021/12/03 02:30:36;;;;;;;10.88;6.15;;;-0.50;99.90;;;;;;5113625;27;20035;-82
2021/12/03 02:33:02;;;;;;;12.07;7.10;;;-0.50;99.90;;;;;;5095321;27;20035;-83
2021/12/03 02:35:29;;;;;;;9.18;6.50;;;-0.50;99.90;;;;;;5073695;27;20034;-83
2021/12/03 02:37:56;;;;;;;11.02;6.80;;;-0.50;99.90;;;;;;5103157;27;20546;-81
2021/12/03 02:40:23;;;;;;;12.32;6.40;;;-0.50;99.90;;;;;;5119664;27;20031;-81
2021/12/03 02:42:50;;;;;;;9.45;6.50;;;-0.50;99.90;;;;;;5166900;27;20046;-84
2021/12/03 02:45:18;;;;;;;12.85;6.72;;;-0.50;99.90;;;;;;5109193;27;20092;-83
2021/12/03 02:47:45;;;;;;;9.45;6.53;;;-0.50;99.90;;;;;;5128324;27;20035;-84
2021/12/03 02:50:12;;;;;;;9.57;6.68;;;-0.40;99.90;;;;;;5105382;27;20034;-83
2021/12/03 02:52:39;;;;;;;13.57;6.78;;;-0.50;99.90;;;;;;5110713;27;20035;-83
2021/12/03 02:55:06;;;;;;;10.60;6.55;;;-0.40;99.90;;;;;;5108421;27;20072;-82
2021/12/03 02:57:33;;;;;;;11.52;6.32;;;-0.40;99.90;;;;;;5134867;27;20483;-83
2021/12/03 03:00:00;;;;;;;10.85;6.93;;;-0.40;99.90;;;;;;5114796;27;20062;-82
2021/12/03 03:02:26;;;;;;;12.10;7.65;;;-0.40;99.90;;;;;;5119029;27;20150;-84
2021/12/03 03:04:53;;;;;;;10.98;7.10;;;-0.30;99.90;;;;;;5136442;27;20050;-83
2021/12/03 03:07:20;;;;;;;10.20;7.85;;;-0.30;99.90;;;;;;5140270;27;20158;-83
2021/12/03 03:09:47;;;;;;;11.32;7.47;;;-0.30;99.90;;;;;;5097388;28;20046;-84
2021/12/03 03:12:14;;;;;;;10.95;7.25;;;-0.30;99.90;;;;;;5096458;28;20055;-82
2021/12/03 03:14:53;;;;;;;9.68;7.60;;;-0.30;99.90;;;;;;5105185;27;20039;-83
2021/12/03 03:17:28;;;;;;;13.70;8.02;;;-0.20;99.90;;;;;;5144639;27;20079;-84
2021/12/03 03:19:55;;;;;;;13.27;8.45;;;-0.30;99.90;;;;;;5124651;27;20031;-83
2021/12/03 03:22:22;;;;;;;10.13;8.07;;;-0.20;99.90;;;;;;5122609;27;20033;-86
2021/12/03 03:24:50;;;;;;;13.90;8.07;;;-0.20;99.90;;;;;;5080715;27;20066;-86
2021/12/03 03:27:17;;;;;;;14.37;9.13;;;-0.20;99.90;;;;;;5123491;27;20038;-87
2021/12/03 03:29:44;;;;;;;13.57;8.35;;;-0.20;99.90;;;;;;5119525;27;20283;-86
2021/12/03 03:32:11;;;;;;;10.60;8.23;;;-0.20;99.90;;;;;;5116761;28;20092;-85
2021/12/03 03:34:38;;;;;;;13.10;8.40;;;-0.20;99.90;;;;;;5134020;27;20039;-85
2021/12/03 03:37:04;;;;;;;10.82;7.90;;;-0.20;99.90;;;;;;5105319;27;20050;-85
2021/12/03 03:39:30;;;;;;;11.23;7.97;;;-0.20;99.90;;;;;;5112357;27;20046;-86
2021/12/03 03:41:57;;;;;;;14.73;8.02;;;-0.20;99.90;;;;;;5115864;27;20035;-86
2021/12/03 03:44:23;;;;;;;12.23;8.57;;;-0.20;99.90;;;;;;5125950;27;20039;-85
2021/12/03 03:46:51;;;;;;;10.18;7.35;;;-0.20;99.90;;;;;;5120217;27;20808;-86
2021/12/03 03:49:19;;;;;;;12.00;7.25;;;-0.20;99.90;;;;;;5125615;27;20058;-87
2021/12/03 03:51:46;;;;;;;13.85;8.07;;;-0.20;99.90;;;;;;5125845;27;20065;-86
2021/12/03 03:54:13;;;;;;;9.57;7.18;;;-0.10;99.90;;;;;;5109733;28;20027;-86
2021/12/03 03:56:40;;;;;;;11.15;7.65;;;-0.20;99.90;;;;;;5087689;27;20051;-86
2021/12/03 03:59:06;;;;;;;9.82;7.32;;;-0.10;99.90;;;;;;5109100;27;20035;-86
2021/12/03 04:01:32;;;;;;;10.13;7.18;;;-0.10;99.90;;;;;;5125229;28;20093;-88
2021/12/03 04:03:58;;;;;;;9.05;7.22;;;-0.10;99.90;;;;;;5114596;27;20046;-85
2021/12/03 04:06:24;;;;;;;9.48;6.60;;;-0.10;99.90;;;;;;5123337;27;20040;-87
2021/12/03 04:08:50;;;;;;;12.20;7.63;;;0.00;99.90;;;;;;5101752;28;20067;-88
2021/12/03 04:11:24;;;;;;;10.52;6.90;;;0.00;99.90;;;;;;5092178;27;20131;-84
2021/12/03 04:13:50;;;;;;;10.25;6.53;;;0.00;99.90;;;;;;5116036;27;20036;-81
2021/12/03 04:16:18;;;;;;;7.65;5.80;;;0.00;99.90;;;;;;5112267;28;20114;-83
2021/12/03 04:18:44;;;;;;;8.88;6.20;;;0.00;99.90;;;;;;5104786;28;20035;-84
2021/12/03 04:21:10;;;;;;;9.77;5.85;;;0.00;99.90;;;;;;5094105;28;20123;-82
2021/12/03 04:23:36;;;;;;;7.53;5.80;;;0.00;99.90;;;;;;5103799;27;20023;-86
2021/12/03 04:26:03;;;;;;;11.23;6.95;;;-0.10;99.90;;;;;;5112738;27;20043;-83
2021/12/03 04:28:29;;;;;;;9.75;6.40;;;-0.10;99.90;;;;;;5127217;27;20346;-85
2021/12/03 04:30:55;;;;;;;8.15;5.93;;;-0.10;99.90;;;;;;5108499;28;20116;-82
2021/12/03 04:33:21;;;;;;;11.18;7.65;;;-0.20;99.90;;;;;;5114666;27;20471;-82
2021/12/03 04:35:48;;;;;;;11.20;6.65;;;-0.20;99.90;;;;;;5099277;27;20035;-83
2021/12/03 04:38:14;;;;;;;17.90;9.70;;;-0.20;99.90;;;;;;5107822;27;20038;-82
2021/12/03 04:40:41;;;;;;;17.08;8.30;;;-0.20;99.90;;;;;;5112093;27;20036;-80
2021/12/03 04:43:08;;;;;;;13.98;8.25;;;-0.30;99.90;;;;;;5108142;28;20451;-81
2021/12/03 04:45:34;;;;;;;15.18;8.45;;;-0.30;99.90;;;;;;5095226;27;20624;-81
2021/12/03 04:48:02;;;;;;;16.08;9.20;;;-0.30;99.90;;;;;;5113375;27;20040;-81
2021/12/03 04:50:32;;;;;;;14.18;8.35;;;-0.40;99.90;;;;;;5126459;27;20134;-83
2021/12/03 04:52:58;;;;;;;17.80;8.10;;;-0.40;99.90;;;;;;5108496;28;20047;-84
2021/12/03 04:55:25;;;;;;;11.25;7.07;;;-0.40;99.90;;;;;;5116069;27;20045;-83
2021/12/03 04:57:54;;;;;;;39.15;21.17;;;-0.50;99.90;;;;;;5119770;27;20058;-84
2021/12/03 05:00:34;;;;;;;9.23;6.35;;;-0.50;99.90;;;;;;5105510;27;20035;-85
2021/12/03 05:03:00;;;;;;;14.60;6.03;;;-0.50;99.90;;;;;;5129739;27;20035;-85
2021/12/03 05:05:30;;;;;;;11.70;5.00;;;-0.60;99.90;;;;;;5122217;27;20044;-82
2021/12/03 05:07:57;;;;;;;10.88;5.90;;;-0.60;99.90;;;;;;5129128;27;20047;-85
2021/12/03 05:10:29;;;;;;;13.30;5.47;;;-0.70;99.90;;;;;;5121921;27;20047;-85
2021/12/03 05:13:02;;;;;;;10.55;6.43;;;-0.70;99.90;;;;;;5117717;27;20519;-84
2021/12/03 05:15:28;;;;;;;11.75;5.82;;;-0.80;99.90;;;;;;5125423;27;20459;-85
2021/12/03 05:17:55;;;;;;;11.75;6.53;;;-0.80;99.90;;;;;;5122450;27;20063;-85
2021/12/03 05:20:21;;;;;;;9.93;5.57;;;-0.80;99.90;;;;;;5111282;27;20386;-85
2021/12/03 05:22:47;;;;;;;8.85;5.50;;;-0.90;99.90;;;;;;5119984;27;20080;-83
2021/12/03 05:25:13;;;;;;;7.90;5.38;;;-0.90;99.90;;;;;;5117740;27;20055;-85
2021/12/03 05:27:40;;;;;;;14.15;5.40;;;-0.90;99.90;;;;;;5116528;27;20048;-83
2021/12/03 05:30:08;;;;;;;9.10;5.60;;;-0.90;99.90;;;;;;5116644;27;20047;-85
2021/12/03 05:32:35;;;;;;;11.80;6.13;;;-1.00;99.90;;;;;;5115300;27;20051;-86
2021/12/03 05:35:01;;;;;;;11.55;5.70;;;-1.00;99.90;;;;;;5105011;28;20044;-86
2021/12/03 05:37:28;;;;;;;6.85;4.97;;;-1.00;99.90;;;;;;5112971;27;20044;-85
2021/12/03 05:39:54;;;;;;;10.23;5.25;;;-1.00;99.90;;;;;;5112272;27;20530;-88
2021/12/03 05:42:20;;;;;;;10.40;5.78;;;-1.00;99.90;;;;;;5088534;27;20085;-84
2021/12/03 05:44:46;;;;;;;10.80;6.50;;;-1.00;99.90;;;;;;5112688;27;20097;-88
2021/12/03 05:47:12;;;;;;;10.75;5.75;;;-1.00;99.90;;;;;;5120468;27;20031;-85
2021/12/03 05:49:38;;;;;;;15.57;6.32;;;-1.10;99.90;;;;;;5094799;27;20039;-83
2021/12/03 05:52:05;;;;;;;12.32;5.47;;;-1.10;99.90;;;;;;5103578;27;20035;-85
2021/12/03 05:54:31;;;;;;;15.88;7.60;;;-1.10;99.90;;;;;;5123787;27;20104;-89
2021/12/03 05:56:57;;;;;;;15.45;8.25;;;-1.10;99.90;;;;;;5115616;28;20040;-89
2021/12/03 05:59:24;;;;;;;18.08;7.80;;;-1.10;99.90;;;;;;5112169;27;20054;-88
2021/12/03 06:01:50;;;;;;;16.70;7.03;;;-1.10;99.90;;;;;;5143794;27;20683;-88
2021/12/03 06:04:16;;;;;;;20.83;7.88;;;-1.10;99.90;;;;;;5119615;27;20049;-89
2021/12/03 06:06:43;;;;;;;10.80;7.57;;;-1.20;99.90;;;;;;5119406;27;20059;-89
2021/12/03 06:09:09;;;;;;;15.95;8.48;;;-1.20;99.90;;;;;;5104591;27;20542;-89
2021/12/03 06:11:35;;;;;;;13.18;8.07;;;-1.20;99.90;;;;;;5140909;27;20039;-89
2021/12/03 06:14:01;;;;;;;13.48;6.65;;;-1.20;99.90;;;;;;5117903;27;20036;-89
2021/12/03 06:16:27;;;;;;;18.80;7.45;;;-1.20;99.90;;;;;;5139028;27;20042;-89
2021/12/03 06:18:53;;;;;;;23.40;8.63;;;-1.20;99.90;;;;;;5111070;27;20039;-87
2021/12/03 06:21:20;;;;;;;13.52;7.15;;;-1.20;99.90;;;;;;5119279;27;20099;-85
2021/12/03 06:23:47;;;;;;;12.57;6.90;;;-1.20;99.90;;;;;;5114355;27;20060;-86
2021/12/03 06:26:13;;;;;;;14.07;7.28;;;-1.20;99.90;;;;;;5109825;27;20126;-84
2021/12/03 06:28:40;;;;;;;17.17;7.05;;;-1.20;99.90;;;;;;5113071;27;20038;-85
2021/12/03 06:31:07;;;;;;;13.45;7.38;;;-1.20;99.90;;;;;;5128648;27;20153;-84
2021/12/03 06:33:34;;;;;;;12.23;7.00;;;-1.20;99.90;;;;;;5129966;27;20043;-86
2021/12/03 06:36:00;;;;;;;17.70;7.07;;;-1.20;99.90;;;;;;5144163;27;20498;-82
2021/12/03 06:38:26;;;;;;;12.32;6.50;;;-1.20;99.90;;;;;;5109771;27;20466;-84
2021/12/03 06:40:55;;;;;;;13.85;7.00;;;-1.20;99.90;;;;;;5074135;27;20059;-82
2021/12/03 06:43:21;;;;;;;12.80;7.05;;;-1.20;99.90;;;;;;5131617;27;20481;-83
2021/12/03 06:45:47;;;;;;;20.98;7.60;;;-1.10;99.90;;;;;;5110934;27;20113;-82
2021/12/03 06:48:14;;;;;;;20.52;7.68;;;-1.10;99.90;;;;;;5125575;27;20031;-80
2021/12/03 06:50:42;;;;;;;29.42;13.85;;;-1.10;99.90;;;;;;5118323;27;20410;-80
2021/12/03 06:53:11;;;;;;;12.88;6.63;;;-1.10;99.90;;;;;;5120053;27;20042;-79
2021/12/03 06:55:44;;;;;;;17.27;6.80;;;-1.00;99.90;;;;;;5102824;27;20063;-79
2021/12/03 06:58:12;;;;;;;16.90;7.38;;;-1.00;99.90;;;;;;5103859;27;20058;-80
2021/12/03 07:00:38;;;;;;;12.43;5.78;;;-1.00;99.90;;;;;;5104581;27;20038;-79
2021/12/03 07:03:04;;;;;;;19.45;6.57;;;-0.90;99.90;;;;;;5123268;27;20107;-80
2021/12/03 07:05:30;;;;;;;15.82;5.63;;;-0.90;99.90;;;;;;5122226;27;20107;-80
2021/12/03 07:07:56;;;;;;;16.00;5.68;;;-0.90;99.90;;;;;;5151705;27;20031;-80
2021/12/03 07:10:23;;;;;;;12.88;5.45;;;-0.80;99.90;;;;;;5131110;27;20042;-80
2021/12/03 07:12:49;;;;;;;11.02;5.28;;;-0.70;99.90;;;;;;5073263;27;20411;-82
2021/12/03 07:15:16;;;;;;;18.02;6.13;;;-0.70;99.90;;;;;;5104601;27;20043;-81
2021/12/03 07:17:42;;;;;;;16.60;6.18;;;-0.60;99.90;;;;;;5093276;27;20075;-81
2021/12/03 07:20:09;;;;;;;14.15;6.43;;;-0.50;99.90;;;;;;5118610;27;20035;-79
2021/12/03 07:22:36;;;;;;;16.75;6.80;;;-0.50;99.90;;;;;;5109606;27;20149;-80
2021/12/03 07:25:03;;;;;;;18.40;6.80;;;-0.40;99.90;;;;;;5120845;27;20031;-79
2021/12/03 07:27:30;;;;;;;15.68;6.15;;;-0.40;99.90;;;;;;5099666;27;20035;-81
2021/12/03 07:29:56;;;;;;;17.85;6.20;;;-0.30;99.90;;;;;;5115898;27;20043;-80
2021/12/03 07:32:23;;;;;;;20.67;5.88;;;-0.30;99.90;;;;;;5103771;27;20993;-81
2021/12/03 07:34:50;;;;;;;12.07;4.93;;;-0.20;99.90;;;;;;5137031;27;21637;-82
2021/12/03 07:37:16;;;;;;;10.10;4.78;;;-0.20;99.90;;;;;;5120940;27;20027;-81
2021/12/03 07:39:44;;;;;;;11.75;5.38;;;-0.20;99.90;;;;;;5098519;27;20110;-81
2021/12/03 07:42:10;;;;;;;18.40;4.97;;;-0.10;99.90;;;;;;5113978;27;20039;-85
2021/12/03 07:44:37;;;;;;;39.05;18.00;;;-0.10;99.90;;;;;;5119985;27;20632;-82
2021/12/03 07:47:03;;;;;;;16.27;5.88;;;-0.10;99.90;;;;;;5097151;27;20043;-79
2021/12/03 07:49:30;;;;;;;12.13;5.65;;;-0.10;99.90;;;;;;5117170;27;20035;-83
2021/12/03 07:51:56;;;;;;;8.45;3.95;;;0.00;99.90;;;;;;5118011;27;20118;-81
2021/12/03 07:54:23;;;;;;;13.02;4.68;;;0.00;99.90;;;;;;5108491;27;20103;-80
2021/12/03 07:56:50;;;;;;;10.57;4.20;;;0.00;99.90;;;;;;5116068;27;20042;-86
2021/12/03 07:59:16;;;;;;;9.07;4.07;;;0.00;99.90;;;;;;5110280;27;20054;-83
2021/12/03 08:01:43;;;;;;;12.70;4.53;;;0.00;99.70;;;;;;5099061;27;20109;-82
2021/12/03 08:04:11;;;;;;;10.82;4.13;;;0.00;99.50;;;;;;5095821;27;20045;-82
2021/12/03 08:10:55;;;;;;;17.88;4.90;;;0.10;99.50;;;;;;5069495;27;20146;-82
2021/12/03 08:13:22;;;;;;;38.03;15.90;;;0.10;99.30;;;;;;5020402;27;20496;-82
2021/12/03 08:15:48;;;;;;;14.93;4.63;;;0.10;99.30;;;;;;5073083;27;20042;-81
2021/12/03 08:18:15;;;;;;;13.98;5.03;;;0.20;99.40;;;;;;5128038;27;20106;-81
2021/12/03 08:20:41;;;;;;;8.30;4.28;;;0.20;99.30;;;;;;5144280;27;20034;-82
2021/12/03 08:23:07;;;;;;;14.32;4.90;;;0.20;99.10;;;;;;5106544;27;20039;-81
2021/12/03 08:25:33;;;;;;;14.43;4.85;;;0.20;99.20;;;;;;5112930;27;20042;-79
2021/12/03 08:28:00;;;;;;;10.27;4.68;;;0.30;99.00;;;;;;5137111;27;20038;-82
2021/12/03 08:30:29;;;;;;;12.07;5.10;;;0.30;99.10;;;;;;5086226;27;20039;-80
2021/12/03 08:32:56;;;;;;;;;;;0.30;98.80;;;;;;5125594;27;20404;-83
2021/12/03 08:35:22;;;;;;;14.38;5.00;;;0.30;98.60;;;;;;5120315;27;19919;-78
2021/12/03 08:37:50;;;;;;;13.88;4.55;;;0.30;98.30;;;;;;5125050;27;20043;-78
2021/12/03 08:40:17;;;;;;;12.38;5.78;;;0.30;98.70;;;;;;5119582;27;20510;-77
2021/12/03 08:42:44;;;;;;;14.38;5.28;;;0.30;98.90;;;;;;5120080;27;20051;-76
2021/12/03 08:45:11;;;;;;;11.75;5.25;;;0.40;98.60;;;;;;5119083;27;20074;-76
2021/12/03 08:47:39;;;;;;;15.85;5.45;;;0.40;98.60;;;;;;5154362;27;20095;-77
2021/12/03 08:50:12;;;;;;;14.45;6.20;;;0.40;98.50;;;;;;5152996;27;20043;-77
2021/12/03 08:53:09;;;;;;;13.88;5.20;;;0.50;98.60;;;;;;5134126;27;20435;-80
2021/12/03 08:55:38;;;;;;;12.68;5.32;;;0.50;98.70;;;;;;5130848;27;20053;-79
2021/12/03 08:58:04;;;;;;;13.45;5.18;;;0.50;98.50;;;;;;5149033;27;20069;-78
2021/12/03 09:00:33;;;;;;;21.50;7.13;;;0.50;98.20;;;;;;5115202;27;20114;-78
2021/12/03 09:03:00;;;;;;;13.73;5.72;;;0.60;98.10;;;;;;5133402;27;20042;-79
2021/12/03 09:05:30;;;;;;;10.20;5.35;;;0.60;98.20;;;;;;5110402;27;20038;-79
2021/12/03 09:07:56;;;;;;;11.32;5.63;;;0.60;98.30;;;;;;5113422;27;20035;-79
2021/12/03 09:10:22;;;;;;;13.77;5.88;;;0.60;98.50;;;;;;5129797;27;20051;-79
2021/12/03 09:12:49;;;;;;;10.45;5.47;;;0.60;98.50;;;;;;5113578;27;20122;-79
2021/12/03 09:15:20;;;;;;;17.05;6.28;;;0.60;98.30;;;;;;5123541;27;20108;-78
2021/12/03 09:23:03;;;;;;;14.85;7.18;;;0.60;98.30;;;;;;5119050;27;20047;-78
2021/12/03 09:25:35;;;;;;;13.73;5.70;;;0.60;98.20;;;;;;5134190;27;20093;-79
2021/12/03 09:28:04;;;;;;;18.48;6.85;;;0.60;98.20;;;;;;5107753;27;20487;-78
2021/12/03 09:30:36;;;;;;;19.08;6.82;;;0.60;98.30;;;;;;5121648;27;20081;-77
2021/12/03 09:33:05;;;;;;;20.48;6.88;;;0.60;98.30;;;;;;5100774;27;20038;-79
2021/12/03 09:35:31;;;;;;;;;;;0.60;98.60;;;;;;5138558;27;20087;-77
2021/12/03 09:37:57;;;;;;;15.50;6.45;;;0.70;98.50;;;;;;5142551;27;19922;-79
2021/12/03 09:40:29;;;;;;;14.18;6.78;;;0.70;98.40;;;;;;5107135;27;20039;-81
2021/12/03 09:42:55;;;;;;;15.70;6.78;;;0.70;98.40;;;;;;5108159;27;20121;-79
2021/12/03 09:45:22;;;;;;;17.95;6.57;;;0.70;98.50;;;;;;5100517;27;20034;-79
2021/12/03 09:47:50;;;;;;;14.88;6.82;;;0.70;98.60;;;;;;5109333;27;20047;-78
2021/12/03 09:50:16;;;;;;;18.60;6.82;;;0.70;98.60;;;;;;5076556;27;20241;-79
2021/12/03 09:55:12;;;;;;;16.73;7.22;;;0.70;98.70;;;;;;5115938;27;20387;-85
2021/12/03 10:03:36;;;;;;;25.63;7.88;;;0.70;98.90;;;;;;5036717;28;20163;-80
2021/12/03 10:15:10;;;;;;;15.82;7.28;;;0.70;99.10;;;;;;4950023;28;20124;-79
2021/12/03 10:20:52;;;;;;;;;;;0.80;98.90;;;;;;4927317;28;20062;-80
2021/12/03 10:31:43;;;;;;;;;;;0.80;99.10;;;;;;4954088;28;20035;-79
2021/12/03 10:37:04;;;;;;;;;;;0.80;99.10;;;;;;5032407;28;20048;-80
2021/12/03 10:42:30;;;;;;;;;;;0.80;99.30;;;;;;5053992;28;20503;-80
2021/12/03 10:45:21;;;;;;;14.63;7.07;;;0.80;99.40;;;;;;5098969;27;19926;-81
2021/12/03 10:48:06;;;;;;;18.35;7.22;;;0.80;99.50;;;;;;5126661;27;20151;-80
2021/12/03 10:50:46;;;;;;;14.10;6.70;;;0.90;99.60;;;;;;5128698;27;20043;-80
2021/12/03 10:53:27;;;;;;;17.65;7.00;;;0.90;99.70;;;;;;5115680;27;20043;-80
2021/12/03 12:47:35;;;;;;;18.48;6.45;;;2.20;96.00;;;;;;5053612;28;20056;-81
2021/12/03 14:00:46;;;;;;;20.60;7.10;;;2.10;95.90;;;;;;5115621;27;20712;-80
2021/12/03 14:43:39;;;;;;;14.50;6.95;;;2.10;96.80;;;;;;5129097;27;20050;-79
2021/12/03 14:54:34;;;;;;;17.67;6.90;;;2.10;96.90;;;;;;5117536;27;20041;-80
2021/12/03 14:57:12;;;;;;;22.00;7.15;;;2.10;96.90;;;;;;5096121;27;20035;-78
2021/12/03 14:59:49;;;;;;;13.63;6.75;;;2.10;97.00;;;;;;5114397;27;20050;-77
2021/12/03 15:07:45;;;;;;;14.68;6.55;;;2.10;97.00;;;;;;5043848;28;20070;-77
2021/12/03 15:10:27;;;;;;;17.02;7.00;;;2.10;97.00;;;;;;5069412;28;20534;-80
2021/12/03 15:13:27;;;;;;;15.90;7.07;;;2.00;97.00;;;;;;5069654;28;20071;-77
2021/12/03 16:04:22;;;;;;;19.63;9.13;;;1.90;97.70;;;;;;5144528;27;20047;-83
2021/12/03 16:12:15;;;;;;;20.05;9.25;;;1.80;97.80;;;;;;5135913;27;20149;-81
2021/12/03 16:14:50;;;;;;;23.85;9.77;;;1.80;97.90;;;;;;5117821;27;20058;-80
2021/12/03 16:20:38;;;;;;;24.23;10.95;;;1.80;97.90;;;;;;5140454;27;20031;-80
2021/12/03 16:43:37;;;;;;;23.55;11.60;;;1.80;98.00;;;;;;5089031;27;20538;-78
2021/12/03 16:50:08;;;;;;;29.02;12.02;;;1.70;98.00;;;;;;5141454;27;20072;-78
2021/12/03 16:52:38;;;;;;;29.98;12.93;;;1.70;98.00;;;;;;5124486;27;20099;-79
2021/12/03 16:55:04;;;;;;;25.92;12.20;;;1.70;98.00;;;;;;5124749;27;20031;-79
2021/12/03 16:57:33;;;;;;;26.20;12.63;;;1.70;97.90;;;;;;5105790;27;20118;-78
2021/12/03 17:00:13;;;;;;;32.22;13.35;;;1.70;97.80;;;;;;5141984;27;20027;-79
2021/12/03 17:02:46;;;;;;;35.95;12.73;;;1.60;97.70;;;;;;5107837;27;20098;-78
2021/12/03 17:05:25;;;;;;;27.77;14.07;;;1.60;97.70;;;;;;5103643;27;20054;-79
2021/12/03 17:16:47;;;;;;;25.42;12.90;;;1.50;97.30;;;;;;5130843;27;20051;-81
2021/12/03 17:53:05;;;;;;;29.42;13.80;;;1.30;96.80;;;;;;5052351;28;20044;-81
2021/12/03 18:03:33;;;;;;;29.52;15.00;;;1.20;96.30;;;;;;5099741;27;20125;-84
2021/12/03 18:17:35;;;;;;;32.55;14.40;;;1.00;96.20;;;;;;5032137;28;20095;-80
2021/12/03 18:47:46;;;;;;;27.15;12.32;;;0.70;95.90;;;;;;5041177;28;20103;-86
2021/12/03 18:55:52;;;;;;;21.77;10.88;;;0.60;95.90;;;;;;5067763;28;20049;-83
2021/12/03 18:58:19;;;;;;;27.00;11.18;;;0.60;95.80;;;;;;5033316;28;20037;-85
2021/12/03 19:00:46;;;;;;;20.40;10.32;;;0.60;95.80;;;;;;5010570;28;20076;-80
2021/12/03 19:08:39;;;;;;;23.33;10.65;;;0.60;95.80;;;;;;5051948;28;20492;-83
2021/12/03 19:13:43;;;;;;;21.27;10.85;;;0.60;95.70;;;;;;5062243;28;20669;-79
2021/12/03 19:16:13;;;;;;;28.23;10.88;;;0.60;95.70;;;;;;5110712;28;20048;-82
2021/12/03 19:18:44;;;;;;;27.20;12.30;;;0.60;95.70;;;;;;5071578;28;20044;-82
2021/12/03 19:21:19;;;;;;;25.02;11.75;;;0.50;95.60;;;;;;5105914;28;20048;-85
2021/12/03 19:24:12;;;;;;;28.67;11.68;;;0.50;95.50;;;;;;4987399;28;20063;-85
2021/12/03 19:26:43;;;;;;;20.88;11.35;;;0.50;95.50;;;;;;5088036;28;20044;-84
2021/12/03 19:29:11;;;;;;;23.15;10.93;;;0.50;95.50;;;;;;5075301;28;20471;-78
2021/12/03 19:31:42;;;;;;;31.15;11.95;;;0.50;95.40;;;;;;5089742;28;20203;-81
2021/12/03 19:34:10;;;;;;;25.25;12.40;;;0.40;95.30;;;;;;5090365;28;20075;-79
2021/12/03 19:36:43;;;;;;;29.42;12.73;;;0.50;95.30;;;;;;5111535;28;20483;-80
2021/12/03 19:39:10;;;;;;;27.65;14.15;;;0.40;95.40;;;;;;5114253;28;20089;-78
2021/12/03 19:44:22;;;;;;;;;;;0.40;95.40;;;;;;5113451;28;20043;-79
2021/12/03 19:46:52;;;;;;;61.33;31.13;;;0.40;95.30;;;;;;5108992;28;19920;-78
2021/12/03 19:52:27;;;;;;;21.55;11.50;;;0.40;95.30;;;;;;5060294;28;20047;-79
2021/12/03 19:54:55;;;;;;;23.85;10.32;;;0.40;95.30;;;;;;5062915;28;20135;-77
2021/12/03 19:57:27;;;;;;;30.15;13.75;;;0.40;95.30;;;;;;5092608;28;20035;-78
2021/12/03 19:59:56;;;;;;;21.45;11.10;;;0.40;95.30;;;;;;5102324;28;20048;-79
2021/12/03 20:02:23;;;;;;;19.90;11.13;;;0.40;95.40;;;;;;5101714;27;20448;-78
2021/12/03 20:04:49;;;;;;;23.70;11.45;;;0.40;95.40;;;;;;5103958;27;20034;-79
2021/12/03 20:07:15;;;;;;;23.45;12.05;;;0.40;95.40;;;;;;5124901;27;20043;-79
2021/12/03 20:09:58;;;;;;;23.67;11.20;;;0.40;95.50;;;;;;5115717;27;20067;-79
2021/12/03 20:12:25;;;;;;;25.30;12.02;;;0.40;95.50;;;;;;5117584;27;20058;-78
2021/12/03 20:14:55;;;;;;;24.77;12.32;;;0.30;95.50;;;;;;5128091;27;20046;-78
2021/12/03 20:19:53;;;;;;;32.17;14.27;;;0.30;95.60;;;;;;5118173;27;20043;-76
2021/12/03 20:28:01;;;;;;;25.67;13.35;;;0.30;95.80;;;;;;5130710;27;20039;-81
2021/12/03 20:30:43;;;;;;;25.77;13.52;;;0.20;95.90;;;;;;5111386;27;20046;-81
2021/12/03 20:38:14;;;;;;;36.35;15.88;;;0.10;96.00;;;;;;5056842;27;20247;-80
2021/12/03 20:40:40;;;;;;;52.85;22.55;;;0.10;96.10;;;;;;5077084;27;20055;-81
2021/12/03 21:10:26;;;;;;;36.50;16.98;;;-0.10;96.60;;;;;;5120825;27;20042;-78
2021/12/03 21:12:55;;;;;;;41.05;18.15;;;-0.10;96.70;;;;;;5116382;27;20069;-80
2021/12/03 21:21:58;;;;;;;148.32;65.30;;;-0.10;96.70;;;;;;5021242;28;20080;-81
2021/12/03 21:24:32;;;;;;;48.38;22.15;;;-0.20;96.70;;;;;;5023030;28;20037;-80
2021/12/03 21:27:00;;;;;;;35.95;17.30;;;-0.20;96.80;;;;;;5043752;28;20029;-80